createdAt,value
2018-12-01T00:04:54.301Z,16.10
2018-12-01T00:09:57.609Z,16.00
2018-12-01T00:15:01.019Z,16.00
2018-12-01T00:20:06.971Z,15.90
2018-12-01T00:25:10.201Z,15.80
2018-12-01T00:30:14.747Z,15.80
2018-12-01T00:35:18.282Z,15.80
2018-12-01T00:40:22.122Z,15.80
2018-12-01T00:45:25.318Z,15.70
2018-12-01T00:50:28.518Z,15.70
2018-12-01T00:55:31.771Z,15.60
2018-12-01T01:00:35.222Z,15.60
2018-12-01T01:05:38.470Z,15.50
2018-12-01T01:10:41.854Z,15.50
2018-12-01T01:15:45.111Z,15.40
2018-12-01T01:20:48.371Z,15.40
2018-12-01T01:25:51.602Z,15.40
2018-12-01T01:30:54.799Z,15.40
2018-12-01T01:35:58.005Z,15.30
2018-12-01T01:41:07.824Z,15.30
2018-12-01T01:46:10.997Z,15.20
2018-12-01T01:51:14.210Z,15.20
2018-12-01T01:56:17.391Z,15.20
2018-12-01T02:01:20.627Z,15.10
2018-12-01T02:06:23.979Z,15.10
2018-12-01T02:11:27.153Z,15.10
2018-12-01T02:16:30.431Z,15.10
2018-12-01T02:21:33.983Z,15.00
2018-12-01T02:26:37.243Z,15.00
2018-12-01T02:31:40.458Z,15.00
2018-12-01T02:36:43.681Z,14.90
2018-12-01T02:41:46.925Z,14.90
2018-12-01T02:47:01.477Z,14.90
2018-12-01T02:52:06.101Z,14.90
2018-12-01T02:57:09.296Z,14.90
2018-12-01T03:02:12.495Z,14.90
2018-12-01T03:07:15.737Z,14.80
2018-12-01T03:12:18.921Z,14.80
2018-12-01T03:17:22.135Z,14.80
2018-12-01T03:22:25.339Z,14.80
2018-12-01T03:27:33.949Z,14.80
2018-12-01T03:32:37.420Z,14.80
2018-12-01T03:37:42.248Z,14.70
2018-12-01T03:42:45.527Z,14.70
2018-12-01T03:47:48.783Z,14.70
2018-12-01T03:52:54.223Z,14.70
2018-12-01T03:57:57.445Z,14.70
2018-12-01T04:03:01.438Z,14.70
2018-12-01T04:08:04.653Z,15.00
2018-12-01T04:13:07.937Z,15.60
2018-12-01T04:18:11.145Z,16.00
2018-12-01T04:23:14.629Z,16.10
2018-12-01T04:28:17.809Z,16.40
2018-12-01T04:33:21.018Z,16.80
2018-12-01T04:38:24.238Z,17.00
2018-12-01T04:43:27.425Z,17.30
2018-12-01T04:48:30.658Z,17.50
2018-12-01T04:53:33.883Z,17.60
2018-12-01T04:58:37.509Z,17.60
2018-12-01T05:03:40.734Z,17.60
2018-12-01T05:08:43.910Z,17.40
2018-12-01T05:13:47.618Z,17.30
2018-12-01T05:18:51.177Z,17.60
2018-12-01T05:23:54.790Z,17.90
2018-12-01T05:28:58.018Z,18.00
2018-12-01T05:34:01.257Z,18.10
2018-12-01T05:39:07.570Z,18.20
2018-12-01T05:44:10.808Z,18.10
2018-12-01T05:49:14.024Z,18.10
2018-12-01T05:54:17.275Z,17.90
2018-12-01T05:59:20.485Z,17.70
2018-12-01T06:04:24.248Z,17.80
2018-12-01T06:09:27.806Z,18.30
2018-12-01T06:14:31.082Z,18.50
2018-12-01T06:19:34.653Z,18.60
2018-12-01T06:24:37.908Z,18.60
2018-12-01T06:29:41.080Z,18.60
2018-12-01T06:34:44.306Z,18.50
2018-12-01T06:39:47.528Z,18.40
2018-12-01T06:44:50.701Z,18.30
2018-12-01T06:49:53.935Z,18.30
2018-12-01T06:54:57.158Z,18.20
2018-12-01T07:00:00.340Z,18.40
2018-12-01T07:05:03.580Z,18.80
2018-12-01T07:10:23.381Z,18.90
2018-12-01T07:15:30.808Z,18.90
2018-12-01T07:20:33.987Z,19.00
2018-12-01T07:25:37.622Z,18.80
2018-12-01T07:30:40.843Z,18.60
2018-12-01T07:35:44.060Z,18.40
2018-12-01T07:40:47.434Z,18.30
2018-12-01T07:45:50.623Z,18.30
2018-12-01T07:50:53.859Z,18.30
2018-12-01T07:55:57.129Z,18.70
2018-12-01T08:01:01.327Z,19.00
2018-12-01T08:06:04.583Z,19.10
2018-12-01T08:11:08.148Z,19.20
2018-12-01T08:16:11.428Z,19.00
2018-12-01T08:21:14.696Z,18.80
2018-12-01T08:26:17.939Z,18.70
2018-12-01T08:31:21.538Z,18.60
2018-12-01T08:36:24.760Z,18.40
2018-12-01T08:41:28.035Z,18.30
2018-12-01T08:46:31.286Z,18.40
2018-12-01T08:51:34.584Z,18.30
2018-12-01T08:56:38.188Z,18.30
2018-12-01T09:01:41.392Z,18.10
2018-12-01T09:06:44.645Z,18.00
2018-12-01T09:11:47.876Z,17.90
2018-12-01T09:16:51.322Z,17.80
2018-12-01T09:21:54.585Z,17.70
2018-12-01T09:26:57.832Z,17.50
2018-12-01T09:32:01.342Z,17.40
2018-12-01T09:37:04.621Z,17.30
2018-12-01T09:42:07.884Z,17.20
2018-12-01T09:47:11.248Z,17.20
2018-12-01T09:52:14.614Z,17.10
2018-12-01T09:57:17.873Z,17.10
2018-12-01T10:02:21.152Z,17.00
2018-12-01T10:07:24.444Z,17.00
2018-12-01T10:12:27.703Z,16.90
2018-12-01T10:17:31.064Z,16.90
2018-12-01T10:22:34.313Z,16.90
2018-12-01T10:27:37.679Z,16.80
2018-12-01T10:32:40.943Z,16.80
2018-12-01T10:37:45.614Z,16.80
2018-12-01T10:42:48.947Z,16.70
2018-12-01T10:47:52.468Z,16.70
2018-12-01T10:52:55.916Z,16.70
2018-12-01T10:58:11.826Z,16.60
2018-12-01T11:03:20.335Z,16.60
2018-12-01T11:08:23.814Z,16.50
2018-12-01T11:13:27.051Z,16.50
2018-12-01T11:18:30.270Z,16.50
2018-12-01T11:23:33.721Z,16.50
2018-12-01T11:28:37.396Z,17.00
2018-12-01T11:33:40.660Z,17.60
2018-12-01T11:38:43.893Z,17.80
2018-12-01T11:43:47.256Z,17.90
2018-12-01T11:48:50.550Z,17.90
2018-12-01T11:53:53.842Z,18.00
2018-12-01T11:58:57.135Z,17.90
2018-12-01T12:04:00.352Z,18.00
2018-12-01T12:09:05.076Z,18.10
2018-12-01T12:14:08.295Z,18.00
2018-12-01T12:19:12.288Z,17.90
2018-12-01T12:24:15.760Z,17.90
2018-12-01T12:29:19.165Z,17.90
2018-12-01T12:34:22.528Z,17.90
2018-12-01T12:39:25.727Z,17.90
2018-12-01T12:44:28.930Z,17.80
2018-12-01T12:49:32.147Z,17.70
2018-12-01T12:54:35.373Z,17.90
2018-12-01T12:59:38.660Z,18.10
2018-12-01T13:04:42.469Z,18.20
2018-12-01T13:09:45.886Z,18.20
2018-12-01T13:14:49.153Z,18.30
2018-12-01T13:19:52.439Z,18.30
2018-12-01T13:24:55.699Z,18.30
2018-12-01T13:29:58.916Z,18.20
2018-12-01T13:35:02.150Z,18.20
2018-12-01T13:40:10.541Z,18.20
2018-12-01T13:45:16.634Z,18.40
2018-12-01T13:50:22.125Z,18.50
2018-12-01T13:55:26.106Z,18.50
2018-12-01T14:00:29.436Z,18.60
2018-12-01T14:05:32.733Z,18.60
2018-12-01T14:10:38.117Z,18.80
2018-12-01T14:15:41.539Z,19.00
2018-12-01T14:20:44.798Z,19.00
2018-12-01T14:25:48.159Z,19.00
2018-12-01T14:30:51.438Z,19.20
2018-12-01T14:35:54.697Z,19.10
2018-12-01T14:40:57.908Z,19.10
2018-12-01T14:46:01.197Z,18.90
2018-12-01T14:51:04.661Z,18.90
2018-12-01T14:56:07.944Z,18.90
2018-12-01T15:01:11.339Z,18.80
2018-12-01T15:06:14.578Z,18.80
2018-12-01T15:11:17.934Z,18.70
2018-12-01T15:16:21.183Z,18.60
2018-12-01T15:21:24.421Z,18.60
2018-12-01T15:26:27.822Z,18.80
2018-12-01T15:31:31.179Z,18.90
2018-12-01T15:36:34.498Z,18.90
2018-12-01T15:41:37.832Z,19.00
2018-12-01T15:46:41.199Z,18.90
2018-12-01T15:51:44.662Z,18.90
2018-12-01T15:56:47.971Z,18.90
2018-12-01T16:01:51.256Z,18.80
2018-12-01T16:06:54.613Z,18.80
2018-12-01T16:11:57.904Z,18.90
2018-12-01T16:17:01.298Z,19.40
2018-12-01T16:22:04.622Z,19.30
2018-12-01T16:27:08.139Z,19.30
2018-12-01T16:32:11.474Z,19.40
2018-12-01T16:37:14.767Z,19.50
2018-12-01T16:42:18.366Z,19.50
2018-12-01T16:47:21.828Z,19.60
2018-12-01T16:52:25.261Z,19.60
2018-12-01T16:57:28.734Z,19.50
2018-12-01T17:02:32.159Z,19.60
2018-12-01T17:07:35.344Z,19.60
2018-12-01T17:12:46.273Z,19.60
2018-12-01T17:17:49.534Z,19.60
2018-12-01T17:22:55.173Z,19.50
2018-12-01T17:27:59.163Z,19.50
2018-12-01T17:33:02.956Z,19.60
2018-12-01T17:38:10.910Z,19.70
2018-12-01T17:43:17.499Z,19.60
2018-12-01T17:48:20.823Z,19.70
2018-12-01T17:53:24.236Z,19.60
2018-12-01T17:58:27.489Z,19.90
2018-12-01T18:03:31.092Z,19.90
2018-12-01T18:08:34.721Z,19.80
2018-12-01T18:13:38.214Z,19.70
2018-12-01T18:18:41.546Z,19.70
2018-12-01T18:23:44.843Z,19.60
2018-12-01T18:28:49.715Z,19.60
2018-12-01T18:34:00.246Z,19.50
2018-12-01T18:39:04.085Z,19.40
2018-12-01T18:44:07.310Z,19.40
2018-12-01T18:49:10.668Z,19.40
2018-12-01T18:54:13.876Z,19.30
2018-12-01T18:59:17.312Z,19.20
2018-12-01T19:04:20.544Z,19.10
2018-12-01T19:09:23.919Z,19.00
2018-12-01T19:14:27.257Z,18.90
2018-12-01T19:19:30.613Z,18.80
2018-12-01T19:24:34.131Z,18.70
2018-12-01T19:29:37.911Z,18.60
2018-12-01T19:34:41.148Z,18.60
2018-12-01T19:39:44.443Z,18.50
2018-12-01T19:44:47.843Z,18.50
2018-12-01T19:49:51.148Z,18.40
2018-12-01T19:54:54.348Z,18.70
2018-12-01T19:59:57.582Z,18.70
2018-12-01T20:05:00.792Z,18.80
2018-12-01T20:10:06.841Z,18.90
2018-12-01T20:15:15.955Z,18.90
2018-12-01T20:20:19.133Z,18.90
2018-12-01T20:25:22.657Z,18.80
2018-12-01T20:30:26.002Z,18.80
2018-12-01T20:35:41.241Z,18.70
2018-12-01T20:40:44.537Z,18.70
2018-12-01T20:45:47.812Z,18.60
2018-12-01T20:50:51.097Z,18.60
2018-12-01T20:55:57.163Z,18.50
2018-12-01T21:01:00.598Z,18.50
2018-12-01T21:06:03.976Z,18.40
2018-12-01T21:11:09.560Z,18.40
2018-12-01T21:16:12.825Z,18.30
2018-12-01T21:21:16.128Z,18.30
2018-12-01T21:26:19.377Z,18.20
2018-12-01T21:31:22.677Z,18.20
2018-12-01T21:36:25.921Z,18.20
2018-12-01T21:41:29.277Z,18.10
2018-12-01T21:46:32.726Z,18.10
2018-12-01T21:51:36.596Z,18.00
2018-12-01T21:56:40.162Z,17.90
2018-12-01T22:01:43.684Z,17.90
2018-12-01T22:06:47.739Z,17.80
2018-12-01T22:11:51.024Z,17.80
2018-12-01T22:16:55.267Z,17.70
2018-12-01T22:22:00.389Z,17.80
2018-12-01T22:27:03.694Z,18.00
2018-12-01T22:32:06.912Z,18.10
2018-12-01T22:37:10.388Z,18.20
2018-12-01T22:42:13.601Z,18.20
2018-12-01T22:47:16.978Z,18.30
2018-12-01T22:52:20.252Z,18.30
2018-12-01T22:57:23.801Z,18.30
2018-12-01T23:02:26.990Z,18.20
2018-12-01T23:07:30.441Z,18.20
2018-12-01T23:12:33.665Z,18.20
2018-12-01T23:17:37.085Z,18.20
2018-12-01T23:22:40.369Z,18.10
2018-12-01T23:27:43.761Z,18.10
2018-12-01T23:32:50.895Z,18.00
2018-12-01T23:37:54.151Z,17.90
2018-12-01T23:42:57.359Z,17.90
2018-12-01T23:48:00.811Z,17.80
2018-12-01T23:53:08.845Z,17.80
2018-12-01T23:58:12.125Z,17.70
